createdAt,value
2022-10-07T00:00:19.421Z,966.55
2022-10-07T00:01:19.431Z,966.52
2022-10-07T00:02:19.427Z,966.51
2022-10-07T00:03:19.374Z,966.47
2022-10-07T00:04:19.357Z,966.49
2022-10-07T00:05:19.369Z,966.49
2022-10-07T00:06:19.328Z,966.48
2022-10-07T00:07:19.310Z,966.5
2022-10-07T00:08:19.296Z,966.49
2022-10-07T00:09:19.282Z,966.47
2022-10-07T00:10:19.835Z,966.48
2022-10-07T00:11:19.819Z,966.5
2022-10-07T00:12:19.806Z,966.46
2022-10-07T00:13:19.791Z,966.45
2022-10-07T00:14:19.774Z,966.47
2022-10-07T00:15:19.757Z,966.47
2022-10-07T00:16:19.781Z,966.48
2022-10-07T00:17:19.727Z,966.48
2022-10-07T00:18:19.711Z,966.47
2022-10-07T00:19:19.697Z,966.47
2022-10-07T00:20:19.678Z,966.44
2022-10-07T00:21:19.687Z,966.43
2022-10-07T00:22:19.649Z,966.44
2022-10-07T00:23:19.630Z,966.45
2022-10-07T00:24:19.621Z,966.45
2022-10-07T00:25:19.603Z,966.44
2022-10-07T00:26:19.583Z,966.44
2022-10-07T00:27:19.568Z,966.4
2022-10-07T00:28:19.631Z,966.39
2022-10-07T00:29:19.538Z,966.39
2022-10-07T00:30:19.522Z,966.36
2022-10-07T00:31:19.595Z,966.37
2022-10-07T00:32:19.492Z,966.33
2022-10-07T00:33:19.474Z,966.35
2022-10-07T00:34:19.459Z,966.29
2022-10-07T00:35:19.425Z,966.25
2022-10-07T00:36:19.428Z,966.26
2022-10-07T00:37:19.418Z,966.26
2022-10-07T00:38:19.364Z,966.24
2022-10-07T00:39:19.347Z,966.22
2022-10-07T00:40:19.332Z,966.21
2022-10-07T00:41:19.314Z,966.21
2022-10-07T00:42:19.302Z,966.17
2022-10-07T00:43:19.284Z,966.13
2022-10-07T00:44:19.269Z,966.14
2022-10-07T00:45:19.251Z,966.15
2022-10-07T00:46:19.300Z,966.15
2022-10-07T00:47:19.222Z,966.12
2022-10-07T00:48:19.206Z,966.12
2022-10-07T00:49:19.189Z,966.06
2022-10-07T00:50:19.177Z,966.09
2022-10-07T00:51:19.158Z,966.09
2022-10-07T00:52:19.144Z,966.1
2022-10-07T00:53:19.151Z,966.05
2022-10-07T00:54:19.112Z,966.04
2022-10-07T00:55:19.100Z,966.03
2022-10-07T00:56:19.081Z,966.01
2022-10-07T00:57:19.064Z,966
2022-10-07T00:58:19.051Z,966.04
2022-10-07T00:59:19.031Z,966.03
2022-10-07T01:00:19.016Z,966.06
2022-10-07T01:01:19.060Z,966
2022-10-07T01:02:19.106Z,966
2022-10-07T01:03:18.969Z,965.95
2022-10-07T01:04:18.953Z,965.95
2022-10-07T01:05:18.936Z,965.96
2022-10-07T01:06:18.922Z,965.91
2022-10-07T01:07:18.904Z,965.87
2022-10-07T01:08:18.892Z,965.88
2022-10-07T01:09:18.899Z,965.91
2022-10-07T01:10:18.864Z,965.85
2022-10-07T01:11:18.842Z,965.88
2022-10-07T01:12:18.828Z,965.82
2022-10-07T01:13:18.810Z,965.84
2022-10-07T01:14:18.796Z,965.81
2022-10-07T01:15:18.781Z,965.77
2022-10-07T01:16:18.795Z,965.77
2022-10-07T01:17:18.749Z,965.77
2022-10-07T01:18:18.732Z,965.75
2022-10-07T01:19:18.718Z,965.76
2022-10-07T01:20:18.701Z,965.75
2022-10-07T01:21:18.687Z,965.69
2022-10-07T01:22:18.669Z,965.67
2022-10-07T01:23:18.655Z,965.67
2022-10-07T01:24:18.637Z,965.7
2022-10-07T01:25:18.649Z,965.66
2022-10-07T01:26:18.612Z,965.64
2022-10-07T01:27:18.592Z,965.65
2022-10-07T01:28:18.620Z,965.6
2022-10-07T01:29:18.560Z,965.61
2022-10-07T01:30:18.543Z,965.58
2022-10-07T01:31:18.550Z,965.6
2022-10-07T01:32:18.509Z,965.55
2022-10-07T01:33:18.501Z,965.56
2022-10-07T01:34:18.480Z,965.54
2022-10-07T01:35:18.467Z,965.51
2022-10-07T01:36:18.448Z,965.51
2022-10-07T01:37:18.433Z,965.55
2022-10-07T01:38:18.415Z,965.54
2022-10-07T01:39:18.401Z,965.51
2022-10-07T01:40:18.382Z,965.5
2022-10-07T01:41:18.429Z,965.53
2022-10-07T01:42:18.351Z,965.51
2022-10-07T01:43:18.337Z,965.48
2022-10-07T01:44:18.320Z,965.47
2022-10-07T01:45:18.304Z,965.47
2022-10-07T01:46:18.399Z,965.45
2022-10-07T01:47:18.275Z,965.44
2022-10-07T01:48:18.255Z,965.42
2022-10-07T01:49:18.241Z,965.4
2022-10-07T01:50:18.232Z,965.36
2022-10-07T01:51:18.209Z,965.43
2022-10-07T01:52:18.194Z,965.39
2022-10-07T01:53:18.180Z,965.32
2022-10-07T01:54:18.163Z,965.36
2022-10-07T01:55:18.146Z,965.32
2022-10-07T01:56:18.128Z,965.39
2022-10-07T01:57:18.139Z,965.34
2022-10-07T01:58:18.095Z,965.33
2022-10-07T01:59:18.081Z,965.34
2022-10-07T02:00:18.065Z,965.31
2022-10-07T02:01:18.085Z,965.32
2022-10-07T02:02:18.041Z,965.3
2022-10-07T02:03:18.083Z,965.26
2022-10-07T02:04:18.000Z,965.24
2022-10-07T02:05:17.983Z,965.2
2022-10-07T02:06:17.968Z,965.19
2022-10-07T02:07:17.952Z,965.21
2022-10-07T02:08:17.944Z,965.13
2022-10-07T02:09:17.919Z,965.13
2022-10-07T02:10:17.906Z,965.16
2022-10-07T02:11:17.887Z,965.17
2022-10-07T02:12:17.872Z,965.17
2022-10-07T02:13:17.879Z,965.15
2022-10-07T02:14:17.841Z,965.17
2022-10-07T02:15:17.824Z,965.12
2022-10-07T02:16:17.873Z,965.12
2022-10-07T02:17:17.791Z,965.12
2022-10-07T02:18:17.781Z,965.15
2022-10-07T02:19:17.760Z,965.12
2022-10-07T02:20:17.744Z,965.1
2022-10-07T02:21:18.742Z,965.07
2022-10-07T02:22:18.727Z,965.06
2022-10-07T02:23:18.710Z,965.1
2022-10-07T02:24:18.694Z,965.08
2022-10-07T02:25:18.682Z,965.1
2022-10-07T02:26:18.664Z,965.1
2022-10-07T02:27:18.646Z,965.14
2022-10-07T02:28:18.685Z,965.12
2022-10-07T02:29:18.636Z,965.11
2022-10-07T02:30:18.600Z,965.09
2022-10-07T02:31:18.606Z,965.14
2022-10-07T02:32:18.567Z,965.12
2022-10-07T02:33:18.547Z,965.1
2022-10-07T02:34:20.072Z,965.12
2022-10-07T02:35:18.517Z,965.09
2022-10-07T02:36:18.501Z,965.1
2022-10-07T02:37:18.487Z,965.06
2022-10-07T02:38:18.468Z,965.05
2022-10-07T02:39:18.452Z,965.02
2022-10-07T02:40:18.438Z,965.05
2022-10-07T02:41:18.419Z,964.96
2022-10-07T02:42:18.404Z,965
2022-10-07T02:43:19.428Z,964.95
2022-10-07T02:44:19.413Z,964.96
2022-10-07T02:45:22.221Z,964.97
2022-10-07T02:46:19.443Z,964.94
2022-10-07T02:47:19.362Z,964.93
2022-10-07T02:48:19.347Z,964.93
2022-10-07T02:49:19.328Z,964.9
2022-10-07T02:50:19.318Z,964.9
2022-10-07T02:51:21.156Z,964.87
2022-10-07T02:52:19.282Z,964.83
2022-10-07T02:53:19.262Z,964.86
2022-10-07T02:54:19.248Z,964.84
2022-10-07T02:55:19.247Z,964.84
2022-10-07T02:56:19.215Z,964.84
2022-10-07T02:57:19.201Z,964.86
2022-10-07T02:58:19.183Z,964.81
2022-10-07T02:59:19.168Z,964.84
2022-10-07T03:00:19.150Z,964.77
2022-10-07T03:01:19.217Z,964.78
2022-10-07T03:02:19.120Z,964.78
2022-10-07T03:03:19.150Z,964.77
2022-10-07T03:04:19.084Z,964.78
2022-10-07T03:05:20.075Z,964.79
2022-10-07T03:06:20.057Z,964.77
2022-10-07T03:07:20.043Z,964.77
2022-10-07T03:08:20.024Z,964.79
2022-10-07T03:09:20.010Z,964.75
2022-10-07T03:10:19.993Z,964.74
2022-10-07T03:11:19.978Z,964.73
2022-10-07T03:12:19.962Z,964.73
2022-10-07T03:13:19.946Z,964.74
2022-10-07T03:14:19.929Z,964.74
2022-10-07T03:15:19.912Z,964.76
2022-10-07T03:16:20.026Z,964.76
2022-10-07T03:17:20.052Z,964.71
2022-10-07T03:18:19.863Z,964.69
2022-10-07T03:19:19.847Z,964.73
2022-10-07T03:20:19.830Z,964.68
2022-10-07T03:21:19.816Z,964.66
2022-10-07T03:22:19.798Z,964.69
2022-10-07T03:23:19.784Z,964.69
2022-10-07T03:24:19.765Z,964.67
2022-10-07T03:25:19.749Z,964.62
2022-10-07T03:26:19.733Z,964.64
2022-10-07T03:27:19.716Z,964.63
2022-10-07T03:28:19.732Z,964.62
2022-10-07T03:29:19.684Z,964.63
2022-10-07T03:30:23.621Z,964.6
2022-10-07T03:31:19.717Z,964.62
2022-10-07T03:32:19.633Z,964.64
2022-10-07T03:49:44.465Z,964.48
2022-10-07T03:50:44.419Z,964.48
2022-10-07T03:51:44.402Z,964.46
2022-10-07T03:52:44.381Z,964.49
2022-10-07T03:53:44.365Z,964.42
2022-10-07T03:54:44.344Z,964.49
2022-10-07T03:55:44.327Z,964.44
2022-10-07T03:56:44.308Z,964.44
2022-10-07T03:57:44.486Z,964.4
2022-10-07T03:58:44.272Z,964.42
2022-10-07T03:59:44.255Z,964.43
2022-10-07T04:00:44.236Z,964.38
2022-10-07T04:01:44.283Z,964.38
2022-10-07T04:02:44.232Z,964.37
2022-10-07T04:03:44.186Z,964.35
2022-10-07T04:04:44.166Z,964.33
2022-10-07T04:05:44.175Z,964.3
2022-10-07T04:06:44.133Z,964.36
2022-10-07T04:07:44.285Z,964.35
2022-10-07T04:08:44.098Z,964.34
2022-10-07T04:09:44.085Z,964.36
2022-10-07T04:10:44.065Z,964.33
2022-10-07T04:11:44.048Z,964.33
2022-10-07T04:12:44.031Z,964.35
2022-10-07T04:13:44.015Z,964.33
2022-10-07T04:14:43.993Z,964.31
2022-10-07T04:15:43.979Z,964.28
2022-10-07T04:16:44.002Z,964.29
2022-10-07T04:17:44.267Z,964.26
2022-10-07T04:18:43.927Z,964.25
2022-10-07T04:19:43.912Z,964.2
2022-10-07T04:20:43.895Z,964.25
2022-10-07T04:21:43.904Z,964.24
2022-10-07T04:22:43.859Z,964.24
2022-10-07T04:23:43.847Z,964.21
2022-10-07T04:24:43.826Z,964.23
2022-10-07T04:25:43.830Z,964.21
2022-10-07T04:26:43.793Z,964.18
2022-10-07T04:27:52.022Z,964.14
2022-10-07T04:28:43.813Z,964.11
2022-10-07T04:29:43.744Z,964.13
2022-10-07T04:30:43.761Z,964.12
2022-10-07T04:31:43.792Z,964.16
2022-10-07T04:32:43.693Z,964.11
2022-10-07T04:33:43.678Z,964.08
2022-10-07T04:34:43.658Z,964.08
2022-10-07T04:35:43.645Z,964.06
2022-10-07T04:36:43.625Z,964.05
2022-10-07T04:37:43.917Z,964.05
2022-10-07T04:38:43.593Z,964.04
2022-10-07T04:39:59.960Z,964.04
2022-10-07T04:40:43.562Z,964.01
2022-10-07T04:41:43.543Z,964.02
2022-10-07T04:42:43.529Z,964.01
2022-10-07T04:43:43.510Z,964.02
2022-10-07T04:44:43.496Z,964.05
2022-10-07T04:45:43.482Z,963.99
2022-10-07T04:46:43.495Z,963.99
2022-10-07T04:47:43.764Z,963.95
2022-10-07T04:48:43.428Z,964.03
2022-10-07T04:49:43.415Z,963.99
2022-10-07T04:50:43.395Z,963.96
2022-10-07T04:51:43.378Z,963.93
2022-10-07T04:52:43.364Z,964
2022-10-07T04:53:43.370Z,963.92
2022-10-07T04:54:43.330Z,963.95
2022-10-07T04:55:43.313Z,963.97
2022-10-07T04:56:43.299Z,963.97
2022-10-07T04:57:43.556Z,963.97
2022-10-07T04:58:43.265Z,963.97
2022-10-07T04:59:43.384Z,963.95
2022-10-07T05:00:43.299Z,963.93
2022-10-07T05:01:43.297Z,963.94
2022-10-07T05:02:43.199Z,963.93
2022-10-07T05:03:43.182Z,963.97
2022-10-07T05:04:43.165Z,963.92
2022-10-07T05:05:43.148Z,963.97
2022-10-07T05:06:43.133Z,963.97
2022-10-07T05:07:43.404Z,963.96
2022-10-07T05:08:43.101Z,963.92
2022-10-07T05:09:43.106Z,963.94
2022-10-07T05:10:43.068Z,963.89
2022-10-07T05:11:43.050Z,963.93
2022-10-07T05:12:43.037Z,963.91
2022-10-07T05:13:43.017Z,963.91
2022-10-07T05:14:43.004Z,963.89
2022-10-07T05:15:42.984Z,963.83
2022-10-07T05:16:43.066Z,963.85
2022-10-07T05:17:43.322Z,963.82
2022-10-07T05:18:42.938Z,963.8
2022-10-07T05:19:42.923Z,963.84
2022-10-07T05:20:42.905Z,963.79
2022-10-07T05:21:42.886Z,963.76
2022-10-07T05:22:42.880Z,963.76
2022-10-07T05:23:42.855Z,963.79
2022-10-07T05:24:42.840Z,963.79
2022-10-07T05:25:42.844Z,963.75
2022-10-07T05:26:42.810Z,963.77
2022-10-07T05:27:43.062Z,963.73
2022-10-07T05:28:42.844Z,963.75
2022-10-07T05:29:42.756Z,963.71
2022-10-07T05:30:42.740Z,963.72
2022-10-07T05:31:42.808Z,963.68
2022-10-07T05:32:42.711Z,963.67
2022-10-07T05:33:42.692Z,963.67
2022-10-07T05:34:42.674Z,963.65
2022-10-07T05:35:42.660Z,963.62
2022-10-07T05:36:42.645Z,963.6
2022-10-07T05:37:44.530Z,963.58
2022-10-07T05:38:42.608Z,963.57
2022-10-07T05:39:42.595Z,963.55
2022-10-07T05:40:42.575Z,963.62
2022-10-07T05:41:45.477Z,963.6
2022-10-07T05:42:42.542Z,963.58
2022-10-07T05:43:42.531Z,963.58
2022-10-07T05:44:42.511Z,963.59
2022-10-07T05:45:42.519Z,963.58
2022-10-07T05:46:42.478Z,963.54
2022-10-07T05:47:42.607Z,963.54
2022-10-07T05:48:42.449Z,963.55
2022-10-07T05:49:42.430Z,963.56
2022-10-07T05:50:42.417Z,963.53
2022-10-07T05:51:42.401Z,963.54
2022-10-07T05:52:42.383Z,963.51
2022-10-07T05:53:42.366Z,963.5
2022-10-07T05:54:42.351Z,963.54
2022-10-07T05:55:42.337Z,963.5
2022-10-07T05:56:42.318Z,963.51
2022-10-07T05:57:42.451Z,963.51
2022-10-07T05:58:42.287Z,963.47
2022-10-07T05:59:42.278Z,963.54
2022-10-07T06:00:42.257Z,963.5
2022-10-07T06:01:42.278Z,963.52
2022-10-07T06:02:42.283Z,963.53
2022-10-07T06:03:42.213Z,963.5
2022-10-07T06:04:42.193Z,963.51
2022-10-07T06:05:42.181Z,963.52
2022-10-07T06:06:42.163Z,963.49
2022-10-07T06:07:42.518Z,963.44
2022-10-07T06:08:42.131Z,963.45
2022-10-07T06:09:42.121Z,963.5
2022-10-07T06:10:42.101Z,963.48
2022-10-07T06:11:42.089Z,963.5
2022-10-07T06:12:42.071Z,963.49
2022-10-07T06:13:42.081Z,963.38
2022-10-07T06:14:42.041Z,963.42
2022-10-07T06:15:42.028Z,963.35
2022-10-07T06:16:42.043Z,963.37
2022-10-07T06:17:42.071Z,963.42
2022-10-07T06:18:41.980Z,963.39
2022-10-07T06:19:41.967Z,963.38
2022-10-07T06:20:41.950Z,963.36
2022-10-07T06:21:41.938Z,963.32
2022-10-07T06:22:41.920Z,963.35
2022-10-07T06:23:41.908Z,963.34
2022-10-07T06:24:41.893Z,963.36
2022-10-07T06:25:41.878Z,963.36
2022-10-07T06:26:41.863Z,963.36
2022-10-07T06:27:41.848Z,963.36
2022-10-07T06:28:41.865Z,963.34
2022-10-07T06:29:41.843Z,963.35
2022-10-07T06:30:41.851Z,963.36
2022-10-07T06:31:41.790Z,963.34
2022-10-07T06:32:41.777Z,963.37
2022-10-07T06:33:41.760Z,963.29
2022-10-07T06:34:41.747Z,963.34
2022-10-07T06:35:41.733Z,963.33
2022-10-07T06:36:41.721Z,963.27
2022-10-07T06:37:41.759Z,963.33
2022-10-07T06:38:41.690Z,963.33
2022-10-07T06:39:41.675Z,963.31
2022-10-07T06:40:41.661Z,963.39
2022-10-07T06:41:41.647Z,963.31
2022-10-07T06:42:41.632Z,963.31
2022-10-07T06:43:41.616Z,963.3
2022-10-07T06:44:41.603Z,963.29
2022-10-07T06:45:41.625Z,963.3
2022-10-07T06:46:42.147Z,963.32
2022-10-07T06:47:42.146Z,963.27
2022-10-07T06:48:42.120Z,963.29
2022-10-07T06:49:42.105Z,963.3
2022-10-07T06:50:42.091Z,963.34
2022-10-07T06:51:42.083Z,963.3
2022-10-07T06:52:43.517Z,963.3
2022-10-07T06:53:42.048Z,963.29
2022-10-07T06:54:42.048Z,963.3
2022-10-07T06:55:42.021Z,963.3
2022-10-07T06:56:42.007Z,963.32
2022-10-07T06:57:45.568Z,963.32
2022-10-07T06:58:41.979Z,963.35
2022-10-07T06:59:41.965Z,963.39
2022-10-07T07:00:41.953Z,963.41
2022-10-07T07:01:42.050Z,963.36
2022-10-07T07:02:41.953Z,963.41
2022-10-07T07:03:41.910Z,963.36
2022-10-07T07:04:41.952Z,963.36
2022-10-07T07:05:44.354Z,963.35
2022-10-07T07:06:41.880Z,963.34
2022-10-07T07:07:41.855Z,963.36
2022-10-07T07:08:42.567Z,963.39
2022-10-07T07:09:42.554Z,963.41
2022-10-07T07:10:42.543Z,963.37
2022-10-07T07:11:42.532Z,963.38
2022-10-07T07:12:42.640Z,963.38
2022-10-07T07:13:43.844Z,963.37
2022-10-07T07:14:42.486Z,963.4
2022-10-07T07:15:42.473Z,963.41
2022-10-07T07:16:42.480Z,963.39
2022-10-07T07:17:42.804Z,963.45
2022-10-07T07:18:42.433Z,963.38
2022-10-07T07:19:42.421Z,963.41
2022-10-07T07:20:42.406Z,963.41
2022-10-07T07:21:42.395Z,963.32
2022-10-07T07:22:42.382Z,963.43
2022-10-07T07:23:42.368Z,963.38
2022-10-07T07:24:42.355Z,963.38
2022-10-07T07:25:42.342Z,963.37
2022-10-07T07:26:42.327Z,963.38
2022-10-07T07:27:42.377Z,963.33
2022-10-07T07:28:42.320Z,963.35
2022-10-07T07:29:42.289Z,963.37
2022-10-07T07:30:43.269Z,963.31
2022-10-07T07:31:43.207Z,963.26
2022-10-07T07:32:43.186Z,963.26
2022-10-07T07:33:43.200Z,963.3
2022-10-07T07:34:43.236Z,963.26
2022-10-07T07:35:43.150Z,963.26
2022-10-07T07:36:43.133Z,963.25
2022-10-07T07:37:43.475Z,963.25
2022-10-07T07:38:43.107Z,963.29
2022-10-07T07:39:43.095Z,963.28
2022-10-07T07:40:43.083Z,963.27
2022-10-07T07:41:43.068Z,963.28
2022-10-07T07:42:43.058Z,963.26
2022-10-07T07:43:43.047Z,963.25
2022-10-07T07:44:43.036Z,963.25
2022-10-07T07:45:43.044Z,963.2
2022-10-07T07:46:43.005Z,963.24
2022-10-07T07:47:43.265Z,963.17
2022-10-07T07:48:42.978Z,963.21
2022-10-07T07:49:42.992Z,963.25
2022-10-07T07:50:42.954Z,963.27
2022-10-07T07:51:42.943Z,963.24
2022-10-07T07:52:43.527Z,963.24
2022-10-07T07:53:43.517Z,963.2
2022-10-07T07:54:43.502Z,963.24
2022-10-07T07:55:43.492Z,963.23
2022-10-07T07:56:43.478Z,963.23
2022-10-07T07:57:43.801Z,963.19
2022-10-07T07:58:43.454Z,963.25
2022-10-07T07:59:43.443Z,963.23
2022-10-07T08:00:43.429Z,963.22
2022-10-07T08:01:43.418Z,963.21
2022-10-07T08:02:43.482Z,963.21
2022-10-07T08:03:43.392Z,963.22
2022-10-07T08:04:43.380Z,963.2
2022-10-07T08:05:43.391Z,963.15
2022-10-07T08:06:43.357Z,963.17
2022-10-07T08:07:43.629Z,963.18
2022-10-07T08:08:43.335Z,963.21
2022-10-07T08:09:43.320Z,963.23
2022-10-07T08:10:43.308Z,963.19
2022-10-07T08:11:43.294Z,963.18
2022-10-07T08:12:43.287Z,963.19
2022-10-07T08:13:43.272Z,963.17
2022-10-07T08:14:43.752Z,963.16
2022-10-07T08:15:43.775Z,963.18
2022-10-07T08:16:43.728Z,963.19
2022-10-07T08:17:43.954Z,963.17
2022-10-07T08:18:43.703Z,963.19
2022-10-07T08:19:43.691Z,963.14
2022-10-07T08:20:43.680Z,963.15
2022-10-07T08:21:43.690Z,963.14
2022-10-07T08:22:43.656Z,963.12
2022-10-07T08:23:43.642Z,963.12
2022-10-07T08:24:43.634Z,963.1
2022-10-07T08:25:43.620Z,963.16
2022-10-07T08:26:43.609Z,963.06
2022-10-07T08:27:43.918Z,963.08
2022-10-07T08:28:43.587Z,963.12
2022-10-07T08:29:43.573Z,963.1
2022-10-07T08:30:43.596Z,963.09
2022-10-07T08:31:43.561Z,963.05
2022-10-07T08:32:43.541Z,963.05
2022-10-07T08:33:43.527Z,963.03
2022-10-07T08:34:43.517Z,963.06
2022-10-07T08:35:43.505Z,963.07
2022-10-07T08:36:43.495Z,963.09
2022-10-07T08:37:43.862Z,963.05
2022-10-07T08:38:43.474Z,963.1
2022-10-07T08:39:43.461Z,963.11
2022-10-07T08:40:43.452Z,963.08
2022-10-07T08:41:43.438Z,963.09
2022-10-07T08:42:43.429Z,963.08
2022-10-07T08:43:43.417Z,963.1
2022-10-07T08:44:43.408Z,963.12
2022-10-07T08:45:43.395Z,963.08
2022-10-07T08:46:43.386Z,963.07
2022-10-07T08:47:43.630Z,963.12
2022-10-07T08:48:43.363Z,963.13
2022-10-07T08:49:43.352Z,963.09
2022-10-07T08:50:43.343Z,963.09
2022-10-07T08:51:43.331Z,963.12
2022-10-07T08:52:43.322Z,963.11
2022-10-07T08:53:43.333Z,963.1
2022-10-07T08:54:43.301Z,963.09
2022-10-07T08:55:43.290Z,963.04
2022-10-07T08:56:43.277Z,963.06
2022-10-07T08:57:43.568Z,963.08
2022-10-07T08:58:43.257Z,963.02
2022-10-07T08:59:43.248Z,963.02
2022-10-07T09:00:43.236Z,963.01
2022-10-07T09:01:43.243Z,963
2022-10-07T09:02:43.242Z,962.99
2022-10-07T09:03:43.207Z,962.99
2022-10-07T09:04:43.195Z,963.02
2022-10-07T09:05:43.186Z,962.96
2022-10-07T09:06:43.176Z,962.98
2022-10-07T09:07:43.481Z,962.98
2022-10-07T09:08:43.157Z,962.96
2022-10-07T09:09:43.169Z,962.97
2022-10-07T09:10:43.136Z,962.93
2022-10-07T09:11:43.128Z,962.93
2022-10-07T09:12:43.120Z,962.88
2022-10-07T09:13:43.108Z,962.91
2022-10-07T09:14:43.096Z,962.85
2022-10-07T09:15:43.148Z,962.89
2022-10-07T09:16:43.078Z,962.89
2022-10-07T09:17:43.070Z,962.89
2022-10-07T09:18:43.059Z,962.87
2022-10-07T09:19:43.052Z,962.89
2022-10-07T09:20:43.040Z,962.9
2022-10-07T09:21:43.031Z,962.89
2022-10-07T09:22:43.022Z,962.9
2022-10-07T09:23:43.015Z,962.88
2022-10-07T09:25:43.019Z,962.86
2022-10-07T09:26:42.984Z,962.87
2022-10-07T09:27:43.353Z,962.86
2022-10-07T09:28:43.020Z,962.86
2022-10-07T09:29:42.959Z,962.79
2022-10-07T09:30:43.017Z,962.86
2022-10-07T09:31:42.940Z,962.8
2022-10-07T09:32:42.929Z,962.76
2022-10-07T09:33:42.928Z,962.78
2022-10-07T09:34:42.911Z,962.8
2022-10-07T09:35:42.905Z,962.74
2022-10-07T09:36:42.894Z,962.74
2022-10-07T09:37:43.215Z,962.75
2022-10-07T09:38:42.876Z,962.74
2022-10-07T09:39:42.869Z,962.74
2022-10-07T09:40:42.857Z,962.75
2022-10-07T09:41:42.874Z,962.75
2022-10-07T09:42:42.843Z,962.77
2022-10-07T09:43:42.833Z,962.72
2022-10-07T09:44:42.825Z,962.74
2022-10-07T09:45:42.818Z,962.75
2022-10-07T09:46:42.840Z,962.73
2022-10-07T09:47:43.189Z,962.74
2022-10-07T09:48:42.793Z,962.8
2022-10-07T09:49:42.783Z,962.81
2022-10-07T09:50:42.780Z,962.76
2022-10-07T09:51:42.767Z,962.77
2022-10-07T09:52:42.759Z,962.76
2022-10-07T09:53:42.750Z,962.79
2022-10-07T09:54:42.743Z,962.77
2022-10-07T09:55:42.733Z,962.75
2022-10-07T09:56:42.727Z,962.68
2022-10-07T09:57:43.019Z,962.7
2022-10-07T09:58:42.712Z,962.68
2022-10-07T09:59:42.702Z,962.75
2022-10-07T10:00:42.699Z,962.73
2022-10-07T10:01:42.711Z,962.69
2022-10-07T10:02:42.767Z,962.74
2022-10-07T10:03:42.716Z,962.67
2022-10-07T10:04:42.668Z,962.67
2022-10-07T10:05:42.655Z,962.67
2022-10-07T10:06:42.651Z,962.64
2022-10-07T10:07:42.971Z,962.65
2022-10-07T10:08:42.640Z,962.61
2022-10-07T10:09:42.624Z,962.61
2022-10-07T10:10:42.619Z,962.6
2022-10-07T10:11:42.627Z,962.54
2022-10-07T10:12:42.813Z,962.52
2022-10-07T10:13:42.683Z,962.52
2022-10-07T10:14:42.591Z,962.51
2022-10-07T10:15:42.659Z,962.48
2022-10-07T10:16:42.576Z,962.49
2022-10-07T10:17:42.568Z,962.46
2022-10-07T10:18:42.559Z,962.48
2022-10-07T10:19:42.550Z,962.48
2022-10-07T10:20:42.544Z,962.49
2022-10-07T10:21:42.536Z,962.5
2022-10-07T10:22:42.785Z,962.5
2022-10-07T10:23:42.519Z,962.48
2022-10-07T10:24:42.515Z,962.43
2022-10-07T10:25:42.505Z,962.42
2022-10-07T10:26:42.500Z,962.37
2022-10-07T10:27:42.489Z,962.38
2022-10-07T10:28:42.531Z,962.36
2022-10-07T10:29:42.500Z,962.34
2022-10-07T10:30:42.470Z,962.34
2022-10-07T10:31:42.463Z,962.32
2022-10-07T10:32:42.461Z,962.29
2022-10-07T10:33:42.446Z,962.25
2022-10-07T10:34:42.441Z,962.25
2022-10-07T10:35:42.431Z,962.21
2022-10-07T10:36:42.426Z,962.27
2022-10-07T10:37:42.417Z,962.21
2022-10-07T10:38:42.411Z,962.2
2022-10-07T10:39:42.406Z,962.19
2022-10-07T10:40:42.395Z,962.17
2022-10-07T10:41:42.389Z,962.14
2022-10-07T10:42:42.419Z,962.16
2022-10-07T10:43:42.376Z,962.11
2022-10-07T10:44:42.367Z,962.12
2022-10-07T10:45:42.385Z,962.12
2022-10-07T10:46:42.396Z,962.13
2022-10-07T10:47:42.346Z,962.1
2022-10-07T10:48:42.338Z,962.03
2022-10-07T10:49:42.332Z,962.05
2022-10-07T10:50:42.324Z,962.01
2022-10-07T10:51:42.319Z,961.98
2022-10-07T10:52:42.632Z,961.99
2022-10-07T10:53:42.304Z,961.96
2022-10-07T10:54:42.295Z,961.9
2022-10-07T10:55:42.289Z,961.9
2022-10-07T10:56:42.280Z,961.86
2022-10-07T10:57:42.275Z,961.88
2022-10-07T10:58:42.268Z,961.84
2022-10-07T10:59:42.263Z,961.87
2022-10-07T11:00:42.254Z,961.84
2022-10-07T11:01:42.348Z,961.83
2022-10-07T11:02:42.354Z,961.81
2022-10-07T11:03:42.237Z,961.8
2022-10-07T11:04:42.226Z,961.81
2022-10-07T11:05:42.223Z,961.81
2022-10-07T11:06:42.214Z,961.77
2022-10-07T11:07:42.208Z,961.79
2022-10-07T11:08:42.200Z,961.79
2022-10-07T11:09:42.194Z,961.73
2022-10-07T11:10:42.189Z,961.73
2022-10-07T11:11:42.181Z,961.75
2022-10-07T11:12:42.367Z,961.71
2022-10-07T11:13:42.167Z,961.68
2022-10-07T11:14:42.161Z,961.65
2022-10-07T11:15:42.168Z,961.63
2022-10-07T11:16:42.145Z,961.66
2022-10-07T11:17:42.167Z,961.64
2022-10-07T11:18:42.137Z,961.61
2022-10-07T11:19:42.126Z,961.62
2022-10-07T11:20:44.623Z,961.62
2022-10-07T11:21:42.113Z,961.63
2022-10-07T11:22:42.104Z,961.63
2022-10-07T11:23:42.098Z,961.61
2022-10-07T11:24:42.091Z,961.6
2022-10-07T11:25:42.097Z,961.59
2022-10-07T11:26:42.077Z,961.56
2022-10-07T11:27:42.073Z,961.5
2022-10-07T11:28:42.143Z,961.53
2022-10-07T11:29:42.058Z,961.49
2022-10-07T11:30:42.050Z,961.52
2022-10-07T11:31:42.088Z,961.49
2022-10-07T11:32:42.070Z,961.49
2022-10-07T11:33:42.055Z,961.46
2022-10-07T11:34:42.030Z,961.41
2022-10-07T11:35:42.018Z,961.38
2022-10-07T11:36:42.016Z,961.33
2022-10-07T11:37:42.002Z,961.28
2022-10-07T11:38:41.998Z,961.25
2022-10-07T11:39:41.991Z,961.22
2022-10-07T11:40:41.986Z,961.23
2022-10-07T11:41:41.979Z,961.21
2022-10-07T11:42:41.982Z,961.22
2022-10-07T11:43:41.966Z,961.21
2022-10-07T11:44:41.960Z,961.2
2022-10-07T11:45:41.951Z,961.18
2022-10-07T11:46:42.006Z,961.16
2022-10-07T11:47:41.939Z,961.17
2022-10-07T11:48:41.934Z,961.13
2022-10-07T11:49:41.966Z,961.1
2022-10-07T11:50:41.924Z,961.07
2022-10-07T11:51:41.916Z,961.01
2022-10-07T11:52:41.912Z,960.99
2022-10-07T11:53:41.908Z,960.97
2022-10-07T11:54:41.899Z,960.97
2022-10-07T11:55:41.889Z,960.92
2022-10-07T11:56:41.885Z,960.88
2022-10-07T11:57:41.878Z,960.88
2022-10-07T11:58:41.874Z,960.89
2022-10-07T11:59:41.865Z,960.92
2022-10-07T12:00:41.861Z,960.89
2022-10-07T12:01:41.914Z,960.93
2022-10-07T12:02:41.892Z,960.89
2022-10-07T12:03:41.840Z,960.87
2022-10-07T12:04:41.841Z,960.88
2022-10-07T12:05:41.853Z,960.83
2022-10-07T12:06:41.823Z,960.81
2022-10-07T12:07:41.817Z,960.83
2022-10-07T12:08:41.812Z,960.74
2022-10-07T12:09:41.802Z,960.8
2022-10-07T12:10:41.800Z,960.79
2022-10-07T12:11:41.793Z,960.76
2022-10-07T12:12:41.893Z,960.74
2022-10-07T12:13:41.785Z,960.7
2022-10-07T12:14:41.817Z,960.67
2022-10-07T12:15:41.793Z,960.67
2022-10-07T12:16:42.165Z,960.67
2022-10-07T12:17:41.757Z,960.67
2022-10-07T12:18:41.751Z,960.67
2022-10-07T12:19:41.749Z,960.65
2022-10-07T12:20:41.739Z,960.62
2022-10-07T12:21:41.782Z,960.62
2022-10-07T12:22:41.724Z,960.6
2022-10-07T12:23:41.721Z,960.6
2022-10-07T12:24:41.713Z,960.61
2022-10-07T12:25:41.710Z,960.58
2022-10-07T12:26:41.702Z,960.56
2022-10-07T12:27:41.699Z,960.55
2022-10-07T12:28:41.779Z,960.52
2022-10-07T12:29:41.685Z,960.52
2022-10-07T12:30:41.677Z,960.5
2022-10-07T12:31:41.728Z,960.55
2022-10-07T12:32:41.664Z,960.5
2022-10-07T12:33:41.661Z,960.48
2022-10-07T12:34:41.654Z,960.52
2022-10-07T12:35:41.648Z,960.46
2022-10-07T12:36:41.640Z,960.48
2022-10-07T12:37:41.706Z,960.43
2022-10-07T12:38:41.628Z,960.4
2022-10-07T12:39:41.643Z,960.39
2022-10-07T12:40:41.618Z,960.35
2022-10-07T12:41:41.613Z,960.32
2022-10-07T12:42:41.605Z,960.33
2022-10-07T12:43:41.600Z,960.32
2022-10-07T12:44:41.593Z,960.36
2022-10-07T12:45:41.633Z,960.31
2022-10-07T12:46:41.582Z,960.27
2022-10-07T12:47:41.578Z,960.28
2022-10-07T12:48:41.571Z,960.3